»·PEaware :: BOE561 KJAC-KSLC

BOE561 :: KJAC-KSLC

FLIGHT INFORMATION

Flight Status: Arrived
Operator:
Boeing Commercial Airplane Group
More flights by this operator :: More flights under this callsign
Pilot: Ben F. (2808)
Aircraft: BOEING 737-200
(B732)
More flights by this aircraft type
Origin: KJAC Jackson Hole
United States
Destination: KSLC Salt Lake City Intl
United States
More flights between these airports :: More routes between these airports
Route: ALPIN2 KICNE LHO LHO4
File this flight plan on PilotEdge
Remarks:
Altitude:
(Current/Filed)
24,000ft
Speed:
(Current/Filed)
411kts
Departed: 11-Mar-18 02:22 PM
Arrived: 11-Mar-18 03:04 PM
Distance/Time
Traveled:
178nm/0:42
Distance/Time
To Go:
Arrived

Flight Plot

Page will automatically refresh every two minutes.

Flight plan parsing failed; only flown route is shown


Map Options




Map Legend


Flown Route
Filed Route
Departure Airport
Arrival Airport
Navaid (VOR, NDB)
Fix

Horizontal Profiles

Position Reports

Time Latitude Longitude Heading Altitude Ground
Speed
11-Mar-18 14:08 43.602259 -110.737707 107 6460ft 0kts
11-Mar-18 14:09 43.602259 -110.737707 107 6460ft 0kts
11-Mar-18 14:10 43.602259 -110.737707 107 6460ft 0kts
11-Mar-18 14:11 43.602259 -110.737707 107 6460ft 0kts
11-Mar-18 14:12 43.602259 -110.737707 107 6460ft 0kts
11-Mar-18 14:13 43.602259 -110.737707 107 6460ft 0kts
11-Mar-18 14:14 43.602259 -110.737708 107 6460ft 1kts
11-Mar-18 14:15 43.602356 -110.738436 66 6460ft 2kts
11-Mar-18 14:16 43.602166 -110.738675 19 6460ft 0kts
11-Mar-18 14:17 43.602193 -110.738661 19 6460ft 2kts
11-Mar-18 14:18 43.605538 -110.737022 18 6460ft 15kts
11-Mar-18 14:19 43.610715 -110.734500 18 6460ft 21kts
11-Mar-18 14:20 43.615207 -110.733595 253 6460ft 15kts
11-Mar-18 14:21 43.601304 -110.740640 199 6464ft 155kts
11-Mar-18 14:22 43.554525 -110.772740 207 8313ft 220kts
11-Mar-18 14:23 43.488752 -110.816696 204 10614ft 284kts
11-Mar-18 14:24 43.412183 -110.865607 204 12764ft 328kts
11-Mar-18 14:25 43.329628 -110.918215 205 15522ft 337kts
11-Mar-18 14:26 43.244540 -110.972334 205 17888ft 346kts
11-Mar-18 14:27 43.176854 -111.062165 229 19948ft 353kts
11-Mar-18 14:28 43.114870 -111.165229 230 21738ft 360kts
11-Mar-18 14:29 43.052136 -111.270594 230 23269ft 368kts
11-Mar-18 14:30 42.988186 -111.377761 231 24265ft 384kts
11-Mar-18 14:31 42.918120 -111.494797 232 24269ft 417kts
11-Mar-18 14:32 42.860063 -111.591457 232 24267ft 436kts
11-Mar-18 14:33 42.804062 -111.684438 231 24266ft 429kts
11-Mar-18 14:34 42.731025 -111.805170 231 24259ft 422kts
11-Mar-18 14:35 42.625625 -111.866659 193 24246ft 434kts
11-Mar-18 14:36 42.507828 -111.889749 190 24234ft 437kts
11-Mar-18 14:37 42.389016 -111.910291 190 24230ft 441kts
11-Mar-18 14:38 42.272636 -111.930124 190 24229ft 444kts
11-Mar-18 14:39 42.183628 -111.945232 190 24228ft 445kts
11-Mar-18 14:40 42.064057 -111.965471 190 24226ft 446kts
11-Mar-18 14:41 41.944336 -111.985645 190 24228ft 447kts
11-Mar-18 14:42 41.854907 -112.000621 190 23397ft 402kts
11-Mar-18 14:43 41.758682 -112.016480 190 21515ft 380kts
11-Mar-18 14:44 41.659217 -112.032311 189 19456ft 361kts
11-Mar-18 14:45 41.564424 -112.047326 189 17425ft 347kts
11-Mar-18 14:46 41.472084 -112.061548 188 15405ft 335kts
11-Mar-18 14:47 41.383516 -112.075127 188 13615ft 321kts
11-Mar-18 14:48 41.298874 -112.088096 187 11769ft 314kts
11-Mar-18 14:49 41.216249 -112.102815 194 11005ft 296kts
11-Mar-18 14:50 41.140819 -112.126982 195 11012ft 284kts
11-Mar-18 14:51 41.064628 -112.127163 174 11015ft 281kts
11-Mar-18 14:52 40.989497 -112.116462 174 11018ft 276kts
11-Mar-18 14:53 40.913468 -112.106633 174 10463ft 276kts
11-Mar-18 14:54 40.845702 -112.097562 174 9406ft 265kts
11-Mar-18 14:55 40.776121 -112.087571 174 8241ft 259kts
11-Mar-18 14:56 40.710280 -112.077509 174 7995ft 227kts
11-Mar-18 14:57 40.648503 -112.067917 174 7999ft 226kts
11-Mar-18 14:58 40.605984 -112.024317 88 8030ft 228kts
11-Mar-18 14:59 40.639014 -111.960724 20 6856ft 237kts
11-Mar-18 15:00 40.692833 -111.954638 345 5748ft 196kts
11-Mar-18 15:01 40.736835 -111.961618 353 4892ft 143kts
11-Mar-18 15:02 40.774611 -111.962021 356 4260ft 140kts
11-Mar-18 15:03 40.788419 -111.960888 40 4236ft 5kts
11-Mar-18 15:04 40.787638 -111.960014 180 4236ft 11kts
11-Mar-18 15:05 40.783719 -111.960040 181 4236ft 16kts
11-Mar-18 15:06 40.779226 -111.960051 178 4236ft 13kts
11-Mar-18 15:07 40.779319 -111.959215 355 4236ft 3kts
11-Mar-18 15:08 40.779671 -111.958821 178 4236ft 0kts
11-Mar-18 15:09 40.779671 -111.958821 178 4236ft 0kts

Navigation Log

Ident Type
Flight plan parsing failed, navigation log unavailable